Time;durP1;ratioP1;P1;durP2;ratioP2;P2;SDS_P1;SDS_P2;PMS_P1;PMS_P2;Temp;Humidity;BMP_temperature;BMP_pressure;BME280_temperature;BME280_humidity;BME280_pressure;Samples;Min_cycle;Max_cycle;Signal;HPM_P1;HPM_P2
2022/05/05 00:01:38;;;;;;;4.10;3.37;;;11.20;99.90;;;;;;5101654;28;20637;-84
2022/05/05 00:04:05;;;;;;;2.80;2.60;;;11.20;99.90;;;;;;5102180;28;20649;-84
2022/05/05 00:06:32;;;;;;;3.40;3.10;;;11.30;99.90;;;;;;5102664;28;20753;-84
2022/05/05 00:08:59;;;;;;;3.57;3.27;;;11.30;99.90;;;;;;5102430;28;20677;-83
2022/05/05 00:14:27;;;;;;;4.90;3.97;;;11.30;99.90;;;;;;5104373;28;20629;-83
2022/05/05 00:16:58;;;;;;;4.40;4.00;;;11.30;99.90;;;;;;5104114;28;20622;-84
2022/05/05 00:19:26;;;;;;;4.23;3.43;;;11.30;99.90;;;;;;5100714;28;20638;-85
2022/05/05 00:21:54;;;;;;;3.83;3.40;;;11.30;99.90;;;;;;5102644;28;20743;-84
2022/05/05 00:24:22;;;;;;;5.07;4.67;;;11.30;99.90;;;;;;5102650;28;20650;-84
2022/05/05 00:26:51;;;;;;;3.13;2.83;;;11.30;99.90;;;;;;5102412;28;20675;-84
2022/05/05 00:29:20;;;;;;;3.50;3.20;;;11.40;99.90;;;;;;5101940;28;20654;-83
2022/05/05 00:31:48;;;;;;;4.93;3.60;;;11.40;99.90;;;;;;5102846;28;21196;-84
2022/05/05 00:34:16;;;;;;;4.77;4.07;;;11.30;99.90;;;;;;5103153;28;21242;-83
2022/05/05 00:36:45;;;;;;;3.30;3.00;;;11.30;99.90;;;;;;5101423;28;20654;-83
2022/05/05 00:39:12;;;;;;;4.10;3.43;;;11.30;99.90;;;;;;5101674;28;21589;-84
2022/05/05 00:41:42;;;;;;;3.33;3.10;;;11.30;99.90;;;;;;5102039;28;20683;-84
2022/05/05 00:44:11;;;;;;;5.67;4.20;;;11.20;99.90;;;;;;5103071;28;21535;-83
2022/05/05 00:46:39;;;;;;;3.57;3.30;;;11.10;99.90;;;;;;5103371;28;20613;-83
2022/05/05 00:49:07;;;;;;;4.40;2.63;;;11.10;99.90;;;;;;5103496;28;20622;-83
2022/05/05 00:51:34;;;;;;;3.23;2.93;;;11.00;99.90;;;;;;5101767;28;20610;-83
2022/05/05 00:54:01;;;;;;;3.70;3.30;;;10.90;99.90;;;;;;5102822;28;21552;-83
2022/05/05 00:56:29;;;;;;;4.40;4.00;;;10.90;99.90;;;;;;5100951;28;20707;-83
2022/05/05 00:58:58;;;;;;;4.80;3.63;;;10.90;99.90;;;;;;5102183;28;20636;-84
2022/05/05 01:01:25;;;;;;;4.30;3.90;;;10.90;99.90;;;;;;5101835;28;21186;-83
2022/05/05 01:03:54;;;;;;;8.03;4.87;;;10.90;99.90;;;;;;5102027;28;20670;-84
2022/05/05 01:06:21;;;;;;;5.40;4.33;;;10.80;99.90;;;;;;5102340;28;20636;-84
2022/05/05 01:08:48;;;;;;;4.30;3.90;;;10.80;99.90;;;;;;5101374;28;20636;-84
2022/05/05 01:11:15;;;;;;;3.27;2.97;;;10.80;99.90;;;;;;5104026;28;20612;-83
2022/05/05 01:13:43;;;;;;;4.87;4.40;;;10.70;99.90;;;;;;5104485;28;21195;-84
2022/05/05 01:16:12;;;;;;;4.43;4.03;;;10.60;99.90;;;;;;5103887;28;20622;-83
2022/05/05 01:18:39;;;;;;;4.13;3.77;;;10.60;99.90;;;;;;5101467;28;20903;-83
2022/05/05 01:21:10;;;;;;;5.53;4.03;;;10.60;99.90;;;;;;5100651;28;20608;-83
2022/05/05 01:23:40;;;;;;;4.37;3.97;;;10.60;99.90;;;;;;5101687;28;20641;-83
2022/05/05 01:28:53;;;;;;;5.77;4.30;;;10.60;99.90;;;;;;5102836;28;20623;-84
2022/05/05 01:31:20;;;;;;;3.40;3.20;;;10.60;99.90;;;;;;5102751;28;20614;-84
2022/05/05 01:33:49;;;;;;;3.40;3.00;;;10.50;99.90;;;;;;5103240;28;20656;-84
2022/05/05 01:36:16;;;;;;;3.20;2.70;;;10.50;99.90;;;;;;5100397;28;20680;-84
2022/05/05 01:38:45;;;;;;;5.17;3.37;;;10.60;99.90;;;;;;5103775;28;20635;-84
2022/05/05 01:41:13;;;;;;;4.40;3.70;;;10.60;99.90;;;;;;5104951;28;20704;-83
2022/05/05 01:43:43;;;;;;;4.10;3.37;;;10.50;99.90;;;;;;5106085;28;20640;-84
2022/05/05 01:46:10;;;;;;;5.50;3.87;;;10.50;99.90;;;;;;5106291;28;20708;-84
2022/05/05 01:48:37;;;;;;;4.03;3.10;;;10.50;99.90;;;;;;5105769;28;21226;-84
2022/05/05 01:51:05;;;;;;;4.20;2.93;;;10.50;99.90;;;;;;5106717;28;20719;-85
2022/05/05 01:53:36;;;;;;;2.83;2.50;;;10.50;99.90;;;;;;5106265;28;20624;-84
2022/05/05 01:56:07;;;;;;;5.80;4.10;;;10.40;99.90;;;;;;5104987;28;20613;-84
2022/05/05 01:58:34;;;;;;;4.13;3.57;;;10.40;99.90;;;;;;5104979;28;20633;-83
2022/05/05 02:01:01;;;;;;;4.73;4.33;;;10.40;99.90;;;;;;5104046;28;20622;-83
2022/05/05 02:03:28;;;;;;;5.03;4.20;;;10.40;99.90;;;;;;5105237;28;20660;-83
2022/05/05 02:05:54;;;;;;;3.10;2.90;;;10.50;99.90;;;;;;5105121;28;21009;-84
2022/05/05 02:08:21;;;;;;;4.83;3.97;;;10.50;99.90;;;;;;5105555;28;21282;-83
2022/05/05 02:10:48;;;;;;;3.23;2.93;;;10.50;99.90;;;;;;5106673;28;20756;-84
2022/05/05 02:13:16;;;;;;;4.13;3.73;;;10.50;99.90;;;;;;5102416;28;20725;-84
2022/05/05 02:15:43;;;;;;;4.63;4.10;;;10.50;99.90;;;;;;5109923;28;20604;-85
2022/05/05 02:18:11;;;;;;;4.67;4.33;;;10.50;99.90;;;;;;5110635;28;20624;-84
2022/05/05 02:20:39;;;;;;;3.80;3.40;;;10.50;99.90;;;;;;5106009;28;20612;-84
2022/05/05 02:23:06;;;;;;;4.10;3.60;;;10.50;99.90;;;;;;5105307;28;20619;-83
2022/05/05 02:25:33;;;;;;;4.90;3.70;;;10.50;99.90;;;;;;5104109;28;20707;-84
2022/05/05 02:28:00;;;;;;;3.03;2.83;;;10.50;99.90;;;;;;5105354;28;20612;-84
2022/05/05 02:30:30;;;;;;;3.90;3.10;;;10.50;99.90;;;;;;5105247;28;20684;-83
2022/05/05 02:32:57;;;;;;;4.53;4.10;;;10.50;99.90;;;;;;5105285;28;20605;-84
2022/05/05 02:35:25;;;;;;;3.83;3.40;;;10.50;99.90;;;;;;5104473;28;20673;-84
2022/05/05 02:40:37;;;;;;;3.70;2.77;;;10.50;99.90;;;;;;5104417;28;21166;-84
2022/05/05 02:43:04;;;;;;;3.53;3.17;;;10.40;99.90;;;;;;5105412;28;20688;-83
2022/05/05 02:45:32;;;;;;;4.13;3.80;;;10.50;99.90;;;;;;5106180;28;20752;-84
2022/05/05 02:48:00;;;;;;;3.70;3.40;;;10.40;99.90;;;;;;5105703;28;20702;-84
2022/05/05 02:50:27;;;;;;;5.70;3.10;;;10.50;99.90;;;;;;5104521;28;20653;-83
2022/05/05 02:52:54;;;;;;;4.47;3.10;;;10.40;99.90;;;;;;5104348;28;20728;-84
2022/05/05 02:55:21;;;;;;;6.70;4.23;;;10.50;99.90;;;;;;5103611;28;20648;-84
2022/05/05 02:57:48;;;;;;;3.50;3.30;;;10.50;99.90;;;;;;5105014;28;21176;-83
2022/05/05 03:00:16;;;;;;;2.73;2.20;;;10.50;99.90;;;;;;5104500;28;21325;-84
2022/05/05 03:02:45;;;;;;;4.33;3.00;;;10.40;99.90;;;;;;5104683;28;20640;-84
2022/05/05 03:05:13;;;;;;;3.70;2.90;;;10.40;99.90;;;;;;5103798;28;20760;-84
2022/05/05 03:07:41;;;;;;;2.70;2.27;;;10.40;99.90;;;;;;5104008;28;20687;-84
2022/05/05 03:10:09;;;;;;;4.23;3.93;;;10.30;99.90;;;;;;5104983;28;20657;-84
2022/05/05 03:12:36;;;;;;;4.13;3.60;;;10.30;99.90;;;;;;5107618;28;20744;-85
2022/05/05 03:15:03;;;;;;;3.17;2.73;;;10.30;99.90;;;;;;5104298;28;20626;-84
2022/05/05 03:17:31;;;;;;;4.10;3.67;;;10.20;99.90;;;;;;5106027;28;20620;-84
2022/05/05 03:19:59;;;;;;;3.17;2.87;;;10.30;99.90;;;;;;5103058;28;21112;-83
2022/05/05 03:22:26;;;;;;;5.93;4.10;;;10.20;99.90;;;;;;5102104;28;20711;-84
2022/05/05 03:24:54;;;;;;;6.43;3.60;;;10.20;99.90;;;;;;5103977;28;20655;-84
2022/05/05 03:27:21;;;;;;;4.80;3.70;;;10.20;99.90;;;;;;5103377;28;20648;-84
2022/05/05 03:29:47;;;;;;;3.33;3.13;;;10.30;99.90;;;;;;5104113;28;21005;-84
2022/05/05 03:32:15;;;;;;;3.43;3.20;;;10.20;99.90;;;;;;5103821;28;22003;-85
2022/05/05 03:34:42;;;;;;;3.20;2.83;;;10.20;99.90;;;;;;5103436;28;20628;-84
2022/05/05 03:37:10;;;;;;;4.17;2.97;;;10.20;99.90;;;;;;5101210;28;20735;-84
2022/05/05 03:39:37;;;;;;;3.33;3.03;;;10.20;99.90;;;;;;5104453;28;20628;-84
2022/05/05 03:42:05;;;;;;;4.77;3.47;;;10.30;99.90;;;;;;5103816;28;20679;-84
2022/05/05 03:44:31;;;;;;;3.27;2.97;;;10.20;99.90;;;;;;5102823;28;20764;-84
2022/05/05 03:46:59;;;;;;;4.53;2.63;;;10.20;99.90;;;;;;5106129;28;20712;-83
2022/05/05 03:49:26;;;;;;;7.27;3.77;;;10.20;99.90;;;;;;5101546;28;20631;-84
2022/05/05 03:51:55;;;;;;;4.87;4.13;;;10.30;99.90;;;;;;5106646;28;20703;-84
2022/05/05 03:54:23;;;;;;;4.03;3.23;;;10.40;99.90;;;;;;5109470;28;20608;-84
2022/05/05 03:56:50;;;;;;;6.67;3.40;;;10.40;99.90;;;;;;5104381;28;20727;-84
2022/05/05 03:59:17;;;;;;;4.00;3.40;;;10.40;99.90;;;;;;5101433;28;21105;-84
2022/05/05 04:01:44;;;;;;;4.03;3.57;;;10.30;99.90;;;;;;5101267;28;20628;-84
2022/05/05 04:04:12;;;;;;;3.33;3.13;;;10.40;99.90;;;;;;5101664;28;20729;-83
2022/05/05 04:06:39;;;;;;;3.57;2.77;;;10.40;99.90;;;;;;5100725;28;20709;-84
2022/05/05 04:09:06;;;;;;;3.90;2.80;;;10.40;99.90;;;;;;5102020;28;20736;-84
2022/05/05 04:11:35;;;;;;;3.73;2.90;;;10.50;99.90;;;;;;5103546;28;21178;-85
2022/05/05 04:14:03;;;;;;;4.07;3.47;;;10.50;99.90;;;;;;5106331;28;20632;-85
2022/05/05 04:16:31;;;;;;;3.03;2.70;;;10.60;99.90;;;;;;5104820;28;20627;-83
2022/05/05 04:18:58;;;;;;;3.07;2.80;;;10.50;99.90;;;;;;5103042;28;20620;-83
2022/05/05 04:21:25;;;;;;;4.77;3.50;;;10.50;99.90;;;;;;5101455;28;20628;-83
2022/05/05 04:23:51;;;;;;;4.67;3.87;;;10.60;99.90;;;;;;5103355;28;21124;-83
2022/05/05 04:26:19;;;;;;;4.10;3.80;;;10.60;99.90;;;;;;5102420;28;20723;-84
2022/05/05 04:28:49;;;;;;;4.73;4.33;;;10.70;99.90;;;;;;5102793;28;20653;-84
2022/05/05 04:31:17;;;;;;;4.43;3.50;;;10.70;99.90;;;;;;5101790;28;20629;-84
2022/05/05 04:33:44;;;;;;;4.20;3.77;;;10.80;99.90;;;;;;5101877;28;20690;-84
2022/05/05 04:36:12;;;;;;;6.80;4.20;;;10.80;99.90;;;;;;5101495;28;20668;-84
2022/05/05 04:38:39;;;;;;;5.20;4.70;;;10.90;99.90;;;;;;5100603;28;21084;-83
2022/05/05 04:41:06;;;;;;;4.67;4.27;;;10.90;99.90;;;;;;5102678;28;20222;-84
2022/05/05 04:43:33;;;;;;;5.00;4.40;;;10.90;99.90;;;;;;5102984;28;20649;-84
2022/05/05 04:46:02;;;;;;;6.50;4.20;;;11.00;99.90;;;;;;5104184;28;20758;-84
2022/05/05 04:48:29;;;;;;;4.93;4.30;;;10.90;99.90;;;;;;5103502;28;20714;-84
2022/05/05 04:50:55;;;;;;;4.20;3.80;;;10.90;99.90;;;;;;5103432;28;20684;-84
2022/05/05 04:53:22;;;;;;;4.67;4.37;;;10.90;99.90;;;;;;5103947;28;21106;-85
2022/05/05 04:55:49;;;;;;;6.87;4.90;;;10.90;99.90;;;;;;5102241;28;20630;-83
2022/05/05 04:58:16;;;;;;;3.93;3.30;;;10.90;99.90;;;;;;5102259;28;20623;-84
2022/05/05 05:00:45;;;;;;;6.33;5.70;;;10.90;99.90;;;;;;5103041;28;20729;-83
2022/05/05 05:05:54;;;;;;;4.20;3.27;;;11.00;99.90;;;;;;5101057;28;20666;-85
2022/05/05 05:08:24;;;;;;;5.83;4.93;;;11.00;99.90;;;;;;5103040;28;20763;-85
2022/05/05 05:10:51;;;;;;;4.03;3.73;;;11.00;99.90;;;;;;5103207;28;20749;-84
2022/05/05 05:13:18;;;;;;;4.07;3.53;;;11.10;99.90;;;;;;5104525;28;21182;-84
2022/05/05 05:15:46;;;;;;;4.33;3.93;;;11.10;99.90;;;;;;5107420;28;21151;-85
2022/05/05 05:18:15;;;;;;;4.03;3.57;;;11.10;99.90;;;;;;5108856;28;20747;-85
2022/05/05 05:20:42;;;;;;;3.40;2.90;;;11.20;99.90;;;;;;5106002;28;21261;-84
2022/05/05 05:23:08;;;;;;;4.20;3.33;;;11.20;99.90;;;;;;5106335;28;21076;-84
2022/05/05 05:25:36;;;;;;;3.30;3.00;;;11.20;99.90;;;;;;5106912;28;20650;-84
2022/05/05 05:28:03;;;;;;;4.23;3.67;;;11.20;99.90;;;;;;5107383;28;20708;-83
2022/05/05 05:30:29;;;;;;;3.27;2.90;;;11.30;99.90;;;;;;5104510;27;20635;-84
2022/05/05 05:32:56;;;;;;;5.93;3.90;;;11.40;99.90;;;;;;5105628;27;20626;-85
2022/05/05 05:35:25;;;;;;;4.50;4.10;;;11.40;99.90;;;;;;5104713;28;21236;-84
2022/05/05 05:37:52;;;;;;;6.53;5.30;;;11.40;99.90;;;;;;5105177;27;20633;-84
2022/05/05 05:40:22;;;;;;;4.33;3.93;;;11.40;99.90;;;;;;5105073;28;20646;-84
2022/05/05 05:42:49;;;;;;;3.50;3.20;;;11.50;99.90;;;;;;5105230;28;21140;-84
2022/05/05 05:45:16;;;;;;;5.47;3.70;;;11.40;99.90;;;;;;5106783;28;20666;-84
2022/05/05 05:47:43;;;;;;;5.10;4.03;;;11.40;99.90;;;;;;5104688;27;20622;-84
2022/05/05 05:50:10;;;;;;;3.43;3.13;;;11.40;99.90;;;;;;5103370;28;21211;-85
2022/05/05 05:52:38;;;;;;;4.33;3.93;;;11.50;99.90;;;;;;5106117;28;20717;-84
2022/05/05 05:55:06;;;;;;;5.30;3.63;;;11.60;99.90;;;;;;5104703;28;20675;-84
2022/05/05 05:57:33;;;;;;;2.93;2.73;;;11.60;99.90;;;;;;5105186;28;20647;-84
2022/05/05 06:00:00;;;;;;;4.53;3.67;;;11.70;99.90;;;;;;5106337;28;20716;-84
2022/05/05 06:05:11;;;;;;;4.80;4.30;;;11.70;99.90;;;;;;5105162;27;20651;-85
2022/05/05 06:07:40;;;;;;;4.93;3.83;;;11.70;99.90;;;;;;5105325;28;20603;-84
2022/05/05 06:10:07;;;;;;;5.13;3.80;;;11.80;99.90;;;;;;5102471;28;20731;-85
2022/05/05 06:12:34;;;;;;;5.67;4.43;;;11.90;99.90;;;;;;5107408;28;20622;-84
2022/05/05 06:15:01;;;;;;;4.23;3.90;;;11.90;99.90;;;;;;5107281;28;20680;-85
2022/05/05 06:17:28;;;;;;;5.53;4.03;;;11.90;99.90;;;;;;5106095;28;21192;-85
2022/05/05 06:19:55;;;;;;;4.13;3.83;;;11.90;99.90;;;;;;5102866;28;21285;-84
2022/05/05 06:22:22;;;;;;;3.93;3.63;;;12.00;99.90;;;;;;5105994;28;20643;-85
2022/05/05 06:24:50;;;;;;;3.90;3.10;;;12.00;99.90;;;;;;5104523;28;20650;-84
2022/05/05 06:27:17;;;;;;;3.73;3.30;;;12.00;99.90;;;;;;5103683;28;20714;-85
2022/05/05 06:29:43;;;;;;;3.60;3.30;;;12.10;99.90;;;;;;5103730;28;20701;-84
2022/05/05 06:32:11;;;;;;;4.67;4.27;;;12.10;99.90;;;;;;5103520;28;20627;-85
2022/05/05 06:34:38;;;;;;;2.80;2.53;;;12.20;99.90;;;;;;5104472;28;20647;-85
2022/05/05 06:37:05;;;;;;;3.80;3.40;;;12.20;99.90;;;;;;5102974;28;20612;-84
2022/05/05 06:39:32;;;;;;;4.13;3.53;;;12.40;99.90;;;;;;5103034;28;20632;-84
2022/05/05 06:42:01;;;;;;;4.13;3.73;;;12.40;99.90;;;;;;5105633;28;20615;-83
2022/05/05 06:44:28;;;;;;;3.97;3.00;;;12.50;99.90;;;;;;5105456;28;21167;-84
2022/05/05 06:46:58;;;;;;;4.00;3.70;;;12.50;99.90;;;;;;5108631;28;21105;-84
2022/05/05 06:49:25;;;;;;;4.73;4.33;;;12.50;99.90;;;;;;5107638;28;20620;-85
2022/05/05 06:51:52;;;;;;;4.50;3.57;;;12.50;99.90;;;;;;5107530;28;20623;-83
2022/05/05 06:54:19;;;;;;;3.63;3.33;;;12.60;99.90;;;;;;5105179;28;20673;-85
2022/05/05 06:56:46;;;;;;;3.50;3.20;;;12.60;99.90;;;;;;5104683;27;20623;-84
2022/05/05 06:59:14;;;;;;;5.77;3.90;;;12.70;99.90;;;;;;5102732;28;20719;-84
2022/05/05 07:01:53;;;;;;;4.23;3.67;;;12.60;99.90;;;;;;5103133;28;21194;-84
2022/05/05 07:07:04;;;;;;;3.47;3.17;;;12.50;99.90;;;;;;5103613;28;20627;-84
2022/05/05 07:12:16;;;;;;;4.10;3.40;;;12.50;99.90;;;;;;5104856;28;21368;-84
2022/05/05 07:14:44;;;;;;;4.37;3.97;;;12.50;99.90;;;;;;5107053;27;21216;-83
2022/05/05 07:17:12;;;;;;;4.30;3.90;;;12.40;99.90;;;;;;5105863;28;20661;-84
2022/05/05 07:19:39;;;;;;;3.83;3.17;;;12.60;99.90;;;;;;5105050;28;20994;-84
2022/05/05 07:22:06;;;;;;;4.40;4.10;;;12.70;99.90;;;;;;5104643;28;20661;-84
2022/05/05 07:24:33;;;;;;;4.73;3.83;;;12.80;99.90;;;;;;5105074;28;20673;-84
2022/05/05 07:27:01;;;;;;;6.50;3.70;;;12.80;99.90;;;;;;5105054;28;20687;-84
2022/05/05 07:29:29;;;;;;;4.60;4.00;;;12.80;99.90;;;;;;5104415;27;21136;-84
2022/05/05 07:31:58;;;;;;;6.73;5.40;;;12.90;99.90;;;;;;5103853;28;20633;-84
2022/05/05 07:34:25;;;;;;;4.30;3.07;;;12.90;99.90;;;;;;5102640;28;20623;-84
2022/05/05 07:36:52;;;;;;;3.60;3.30;;;12.90;99.90;;;;;;5102661;28;20610;-84
2022/05/05 07:39:19;;;;;;;3.70;3.30;;;13.00;99.90;;;;;;5102222;28;21273;-84
2022/05/05 07:41:46;;;;;;;4.60;3.63;;;13.10;99.90;;;;;;5102995;28;20624;-84
2022/05/05 07:44:13;;;;;;;3.93;3.53;;;13.20;99.90;;;;;;5103545;28;20626;-84
2022/05/05 07:46:40;;;;;;;4.07;3.73;;;13.20;99.90;;;;;;5103566;28;21254;-85
2022/05/05 07:49:08;;;;;;;6.43;4.40;;;13.30;99.90;;;;;;5100895;28;20617;-84
2022/05/05 07:51:36;;;;;;;4.13;3.70;;;13.20;99.90;;;;;;5107612;27;20649;-84
2022/05/05 07:56:47;;;;;;;3.30;2.90;;;13.20;99.90;;;;;;5114031;27;20617;-84
2022/05/05 07:59:14;;;;;;;6.33;4.50;;;13.10;99.90;;;;;;5101957;28;20657;-84
2022/05/05 08:01:41;;;;;;;5.03;4.27;;;13.10;99.90;;;;;;5102672;28;21030;-84
2022/05/05 08:04:10;;;;;;;6.27;5.63;;;13.10;99.90;;;;;;5101514;28;20706;-84
2022/05/05 08:06:36;;;;;;;9.60;4.13;;;13.10;99.90;;;;;;5102284;28;20655;-84
2022/05/05 08:09:04;;;;;;;4.83;3.80;;;13.00;99.90;;;;;;5103279;27;20731;-84
2022/05/05 08:11:31;;;;;;;4.83;4.43;;;12.90;99.90;;;;;;5104355;28;20694;-84
2022/05/05 08:13:58;;;;;;;5.90;4.87;;;13.00;99.90;;;;;;5105431;28;20621;-85
2022/05/05 08:16:25;;;;;;;4.50;4.07;;;13.10;99.90;;;;;;5104708;28;21167;-85
2022/05/05 08:18:52;;;;;;;4.23;3.53;;;13.20;99.90;;;;;;5102497;28;20661;-84
2022/05/05 08:21:20;;;;;;;6.13;4.27;;;13.20;99.90;;;;;;5102929;28;20724;-84
2022/05/05 08:23:47;;;;;;;3.43;2.87;;;13.30;99.90;;;;;;5103315;28;20665;-84
2022/05/05 08:28:59;;;;;;;4.83;4.43;;;13.40;99.90;;;;;;5102615;28;20614;-84
2022/05/05 08:31:26;;;;;;;7.20;4.30;;;13.50;99.90;;;;;;5102284;28;20628;-84
2022/05/05 08:33:53;;;;;;;3.87;3.47;;;13.50;99.90;;;;;;5102697;28;20624;-85
2022/05/05 08:36:21;;;;;;;5.80;5.33;;;13.40;99.90;;;;;;5102320;28;20628;-84
2022/05/05 08:38:49;;;;;;;4.97;4.10;;;13.30;99.90;;;;;;5101057;28;20638;-84
2022/05/05 08:41:16;;;;;;;5.40;4.90;;;13.40;99.90;;;;;;5094323;28;20631;-84
2022/05/05 08:43:43;;;;;;;4.73;4.20;;;13.50;99.90;;;;;;5103015;28;20626;-85
2022/05/05 08:46:14;;;;;;;7.20;5.47;;;13.50;99.90;;;;;;5102200;28;20659;-84
2022/05/05 08:48:44;;;;;;;7.07;4.90;;;13.60;99.90;;;;;;5101414;28;20634;-84
2022/05/05 08:51:17;;;;;;;6.37;4.90;;;13.60;99.90;;;;;;5104061;28;20627;-85
2022/05/05 08:53:50;;;;;;;4.70;3.80;;;13.70;99.90;;;;;;5107674;27;20725;-86
2022/05/05 08:56:17;;;;;;;4.57;3.93;;;13.80;99.90;;;;;;5106758;28;20831;-84
2022/05/05 08:58:44;;;;;;;5.97;5.20;;;13.80;99.90;;;;;;5105656;28;21276;-84
2022/05/05 09:01:11;;;;;;;6.47;5.63;;;13.90;99.90;;;;;;5103447;28;21342;-84
2022/05/05 09:03:38;;;;;;;4.80;4.10;;;14.00;99.90;;;;;;5105267;28;20651;-84
2022/05/05 09:06:06;;;;;;;6.23;4.70;;;14.10;99.90;;;;;;5105322;28;20640;-84
2022/05/05 09:08:34;;;;;;;7.17;5.20;;;14.10;99.90;;;;;;5107433;28;20639;-83
2022/05/05 09:11:05;;;;;;;4.80;4.03;;;13.90;99.90;;;;;;5106632;28;20629;-84
2022/05/05 09:13:34;;;;;;;5.17;4.67;;;14.00;99.90;;;;;;5109204;28;20624;-84
2022/05/05 09:16:03;;;;;;;7.90;5.07;;;14.10;99.90;;;;;;5109025;28;20616;-85
2022/05/05 09:18:32;;;;;;;6.23;4.27;;;14.10;99.90;;;;;;5108040;28;20629;-84
2022/05/05 09:21:01;;;;;;;6.70;4.47;;;14.10;99.90;;;;;;5107703;28;20621;-84
2022/05/05 09:23:30;;;;;;;5.73;5.23;;;14.00;99.90;;;;;;5107685;28;20631;-84
2022/05/05 09:25:57;;;;;;;6.20;4.63;;;14.10;99.90;;;;;;5107264;28;20640;-85
2022/05/05 09:28:28;;;;;;;6.57;5.97;;;14.10;99.90;;;;;;5106117;28;21199;-84
2022/05/05 09:30:55;;;;;;;6.97;6.37;;;14.00;99.90;;;;;;5105811;28;20647;-84
2022/05/05 09:33:38;;;;;;;7.17;5.30;;;14.00;99.90;;;;;;5107293;28;21127;-84
2022/05/05 09:36:07;;;;;;;6.73;4.83;;;14.00;99.90;;;;;;5104648;28;20719;-84
2022/05/05 09:38:50;;;;;;;6.00;3.93;;;14.00;99.90;;;;;;5105795;27;20652;-84
2022/05/05 09:41:17;;;;;;;6.90;5.37;;;14.10;99.90;;;;;;5106062;28;20627;-84
2022/05/05 09:43:45;;;;;;;6.37;5.70;;;14.10;99.90;;;;;;5105973;28;21091;-84
2022/05/05 09:46:31;;;;;;;5.80;5.13;;;14.10;99.90;;;;;;5107215;28;20704;-84
2022/05/05 09:49:07;;;;;;;6.23;5.43;;;14.20;99.90;;;;;;5106419;28;20615;-84
2022/05/05 09:51:40;;;;;;;8.90;7.00;;;14.00;99.90;;;;;;5104436;28;20635;-84
2022/05/05 09:59:47;;;;;;;7.17;6.07;;;14.10;99.90;;;;;;5105867;28;20710;-84
2022/05/05 10:04:00;;;;;;;12.23;7.87;;;14.20;99.90;;;;;;5104022;28;20635;-84
2022/05/05 10:05:08;;;;;;;11.17;6.73;;;14.40;99.90;;;;;;5104002;28;20619;-85
2022/05/05 10:07:38;;;;;;;7.80;6.30;;;14.20;99.70;;;;;;5106164;28;20655;-84
2022/05/05 10:10:08;;;;;;;7.20;5.73;;;13.90;99.90;;;;;;5106640;27;20649;-84
2022/05/05 10:12:35;;;;;;;7.27;6.60;;;14.10;99.90;;;;;;5108180;27;20643;-84
2022/05/05 10:15:05;;;;;;;8.13;7.03;;;14.30;99.90;;;;;;5110018;28;20607;-85
2022/05/05 10:17:36;;;;;;;8.23;6.60;;;14.30;99.90;;;;;;5112957;28;20627;-84
2022/05/05 10:20:03;;;;;;;7.20;6.03;;;14.40;99.90;;;;;;5113706;28;21022;-85
2022/05/05 10:22:41;;;;;;;8.90;8.00;;;14.40;99.90;;;;;;5111144;28;21200;-84
2022/05/05 10:25:14;;;;;;;9.47;7.60;;;14.20;99.90;;;;;;5106535;28;20642;-83
2022/05/05 10:27:44;;;;;;;7.33;6.60;;;14.00;99.40;;;;;;5110912;28;20646;-85
2022/05/05 10:30:17;;;;;;;8.60;6.73;;;14.00;99.60;;;;;;5110335;28;20699;-84
2022/05/05 10:32:44;;;;;;;9.30;8.07;;;14.00;99.90;;;;;;5110452;28;20984;-84
2022/05/05 10:35:23;;;;;;;9.37;7.33;;;14.10;99.90;;;;;;5109631;28;20624;-85
2022/05/05 10:37:50;;;;;;;9.10;7.73;;;14.20;99.90;;;;;;5110315;28;20726;-84
2022/05/05 10:40:17;;;;;;;8.10;7.30;;;14.40;99.90;;;;;;5113061;27;20742;-84
2022/05/05 10:42:45;;;;;;;9.13;8.20;;;14.30;99.90;;;;;;5120625;27;20631;-84
2022/05/05 10:45:13;;;;;;;9.50;7.83;;;14.40;99.90;;;;;;5109500;28;20631;-84
2022/05/05 10:48:10;;;;;;;9.60;7.90;;;14.50;99.90;;;;;;5109320;28;20764;-84
2022/05/05 10:50:39;;;;;;;8.53;6.37;;;14.50;99.90;;;;;;5109891;28;20627;-85
2022/05/05 10:53:07;;;;;;;8.07;7.13;;;14.40;99.70;;;;;;5109500;28;20632;-84
2022/05/05 10:55:42;;;;;;;9.30;8.33;;;14.40;99.70;;;;;;5108306;28;20619;-85
2022/05/05 10:58:10;;;;;;;8.80;6.93;;;14.30;99.90;;;;;;5095311;27;20619;-85
2022/05/05 11:00:43;;;;;;;9.33;8.00;;;14.10;99.90;;;;;;5109584;27;20655;-85
2022/05/05 11:03:20;;;;;;;7.80;7.03;;;14.20;99.90;;;;;;5113623;27;20635;-86
2022/05/05 11:05:47;;;;;;;11.50;8.00;;;14.20;99.90;;;;;;5120630;27;20629;-85
2022/05/05 11:08:33;;;;;;;8.00;7.20;;;14.30;99.90;;;;;;5104809;28;21009;-86
2022/05/05 11:13:45;;;;;;;9.07;7.57;;;14.20;99.90;;;;;;5130269;27;20705;-87
2022/05/05 11:22:15;;;;;;;8.60;7.20;;;14.20;99.90;;;;;;5089883;28;20626;-87
2022/05/05 11:24:45;;;;;;;9.13;8.00;;;14.30;99.90;;;;;;5090194;28;20612;-87
2022/05/05 11:27:12;;;;;;;11.90;8.40;;;14.40;99.90;;;;;;5108945;27;20651;-87
2022/05/05 11:29:40;;;;;;;12.50;7.60;;;14.30;99.90;;;;;;5109872;28;21175;-86
2022/05/05 11:32:09;;;;;;;10.20;8.37;;;14.20;99.90;;;;;;5109072;28;20726;-86
2022/05/05 11:34:39;;;;;;;9.27;8.37;;;14.30;99.90;;;;;;5109968;28;21206;-86
2022/05/05 11:37:08;;;;;;;8.20;6.87;;;14.30;99.90;;;;;;5109042;28;20615;-86
2022/05/05 11:39:36;;;;;;;11.67;8.80;;;14.30;99.90;;;;;;5111417;27;20615;-85
2022/05/05 11:42:05;;;;;;;10.67;9.20;;;14.10;99.90;;;;;;5109522;28;20630;-86
2022/05/05 11:44:35;;;;;;;8.43;6.87;;;14.00;99.90;;;;;;5108804;28;20622;-85
2022/05/05 11:47:10;;;;;;;9.60;7.27;;;13.80;99.90;;;;;;5117854;27;20654;-86
2022/05/05 11:49:38;;;;;;;7.97;7.10;;;13.70;99.90;;;;;;5109457;28;20669;-85
2022/05/05 11:52:06;;;;;;;8.53;7.50;;;13.70;99.90;;;;;;5109392;28;20646;-85
2022/05/05 11:54:34;;;;;;;8.93;8.03;;;13.80;99.90;;;;;;5126568;27;20649;-85
2022/05/05 11:57:02;;;;;;;8.43;6.77;;;13.80;99.90;;;;;;5111815;27;20714;-85
2022/05/05 12:02:17;;;;;;;10.40;9.20;;;13.60;99.90;;;;;;5096411;28;20664;-86
2022/05/05 12:04:47;;;;;;;12.17;8.53;;;13.50;99.90;;;;;;5109947;28;20652;-85
2022/05/05 12:07:19;;;;;;;9.43;8.50;;;13.50;99.90;;;;;;5110381;28;20640;-85
2022/05/05 12:09:48;;;;;;;7.33;6.60;;;13.60;99.90;;;;;;5109697;28;20715;-85
2022/05/05 12:12:18;;;;;;;10.53;8.50;;;13.60;99.90;;;;;;5109063;28;20967;-85
2022/05/05 12:14:48;;;;;;;9.40;6.50;;;13.50;99.90;;;;;;5127011;27;20648;-86
2022/05/05 12:17:18;;;;;;;8.57;7.67;;;13.60;99.90;;;;;;5108365;28;20621;-86
2022/05/05 12:19:49;;;;;;;10.70;7.20;;;13.50;99.90;;;;;;5108345;28;20615;-84
2022/05/05 12:22:21;;;;;;;9.97;7.57;;;13.50;99.90;;;;;;5109067;28;20633;-86
2022/05/05 12:24:48;;;;;;;10.37;7.07;;;13.60;99.90;;;;;;5107860;28;20661;-85
2022/05/05 12:27:15;;;;;;;9.63;8.67;;;13.80;99.90;;;;;;5118646;27;20694;-85
2022/05/05 12:29:43;;;;;;;10.60;8.60;;;13.90;99.90;;;;;;5107655;28;20981;-85
2022/05/05 12:32:58;;;;;;;7.07;6.37;;;13.90;99.90;;;;;;5108789;28;20925;-85
2022/05/05 12:38:45;;;;;;;11.40;6.80;;;13.90;99.90;;;;;;5105552;28;20738;-86
2022/05/05 12:41:12;;;;;;;11.43;8.37;;;14.00;99.90;;;;;;5110902;28;20633;-85
2022/05/05 12:47:02;;;;;;;11.50;7.60;;;14.20;99.90;;;;;;5122874;28;20649;-85
2022/05/05 12:49:37;;;;;;;7.97;6.70;;;14.60;99.90;;;;;;5111691;28;20620;-85
2022/05/05 12:59:36;;;;;;;12.67;9.00;;;14.90;99.90;;;;;;5108282;28;20611;-86
2022/05/05 13:01:06;;;;;;;10.00;8.10;;;14.80;99.90;;;;;;5107965;28;20616;-85
2022/05/05 13:03:54;;;;;;;12.50;7.77;;;14.80;99.90;;;;;;5089168;28;20615;-85
2022/05/05 13:06:31;;;;;;;10.70;8.73;;;14.60;99.90;;;;;;5107238;28;20718;-85
2022/05/05 13:09:08;;;;;;;9.83;8.20;;;14.70;99.90;;;;;;5108281;28;20631;-86
2022/05/05 13:11:40;;;;;;;11.13;9.50;;;14.60;99.90;;;;;;5107939;28;20623;-86
2022/05/05 13:14:09;;;;;;;10.40;8.70;;;14.70;99.90;;;;;;5107649;28;20603;-85
2022/05/05 13:16:49;;;;;;;11.47;7.37;;;14.60;99.90;;;;;;5107885;28;20776;-86
2022/05/05 13:19:25;;;;;;;10.50;7.33;;;15.20;99.90;;;;;;5106479;28;20631;-86
2022/05/05 13:21:53;;;;;;;8.83;6.67;;;15.40;99.90;;;;;;5108239;28;20672;-85
2022/05/05 13:24:29;;;;;;;10.90;7.37;;;15.60;99.90;;;;;;5107886;28;20608;-85
2022/05/05 13:27:03;;;;;;;10.60;7.97;;;15.50;99.90;;;;;;5107773;28;20735;-86
2022/05/05 13:29:45;;;;;;;11.63;8.20;;;15.70;99.90;;;;;;5103152;28;20624;-86
2022/05/05 13:35:38;;;;;;;10.13;7.37;;;15.90;99.90;;;;;;5108008;28;20771;-85
2022/05/05 13:38:15;;;;;;;7.10;6.40;;;15.70;99.90;;;;;;5100618;28;21200;-86
2022/05/05 13:40:56;;;;;;;7.60;6.80;;;15.80;99.90;;;;;;5110803;28;21171;-86
2022/05/05 13:49:43;;;;;;;9.30;6.60;;;16.00;99.90;;;;;;5110686;28;20619;-86
2022/05/05 13:52:09;;;;;;;11.07;6.53;;;16.20;99.90;;;;;;5112184;27;20627;-87
2022/05/05 13:54:36;;;;;;;8.17;6.73;;;16.20;99.90;;;;;;5111020;28;20687;-86
2022/05/05 13:57:06;;;;;;;7.93;6.93;;;16.00;99.90;;;;;;5111062;28;21142;-85
2022/05/05 13:59:33;;;;;;;8.63;6.83;;;15.60;99.40;;;;;;5111582;28;20665;-85